sensor_id;sensor_type;location;lat;lon;timestamp;P1;durP1;ratioP1;P2;durP2;ratioP2
73919;SDS011;62266;53.348;-1.496;2022-11-20T00:02:28;36.25;;;15.80;;
73919;SDS011;62266;53.348;-1.496;2022-11-20T00:04:54;30.67;;;16.00;;
73919;SDS011;62266;53.348;-1.496;2022-11-20T00:07:20;33.20;;;15.77;;
73919;SDS011;62266;53.348;-1.496;2022-11-20T00:09:45;35.33;;;16.60;;
73919;SDS011;62266;53.348;-1.496;2022-11-20T00:12:20;34.28;;;17.88;;
73919;SDS011;62266;53.348;-1.496;2022-11-20T00:14:46;30.77;;;15.87;;
73919;SDS011;62266;53.348;-1.496;2022-11-20T00:17:11;40.88;;;16.60;;
73919;SDS011;62266;53.348;-1.496;2022-11-20T00:19:38;32.15;;;16.20;;
73919;SDS011;62266;53.348;-1.496;2022-11-20T00:22:04;35.93;;;15.90;;
73919;SDS011;62266;53.348;-1.496;2022-11-20T00:24:29;35.08;;;16.45;;
73919;SDS011;62266;53.348;-1.496;2022-11-20T00:27:04;35.40;;;16.02;;
73919;SDS011;62266;53.348;-1.496;2022-11-20T00:29:30;36.53;;;17.17;;
73919;SDS011;62266;53.348;-1.496;2022-11-20T00:31:55;36.33;;;16.47;;
73919;SDS011;62266;53.348;-1.496;2022-11-20T00:34:23;33.83;;;16.75;;
73919;SDS011;62266;53.348;-1.496;2022-11-20T00:36:48;34.33;;;15.67;;
73919;SDS011;62266;53.348;-1.496;2022-11-20T00:39:14;39.30;;;16.92;;
73919;SDS011;62266;53.348;-1.496;2022-11-20T00:41:39;33.33;;;17.53;;
73919;SDS011;62266;53.348;-1.496;2022-11-20T00:44:05;36.90;;;16.43;;
73919;SDS011;62266;53.348;-1.496;2022-11-20T00:46:30;35.10;;;17.43;;
73919;SDS011;62266;53.348;-1.496;2022-11-20T00:48:56;36.50;;;15.60;;
73919;SDS011;62266;53.348;-1.496;2022-11-20T00:51:23;35.10;;;16.40;;
73919;SDS011;62266;53.348;-1.496;2022-11-20T00:53:49;36.50;;;16.23;;
73919;SDS011;62266;53.348;-1.496;2022-11-20T00:56:16;34.83;;;15.27;;
73919;SDS011;62266;53.348;-1.496;2022-11-20T00:58:43;32.28;;;16.17;;
73919;SDS011;62266;53.348;-1.496;2022-11-20T01:01:11;32.70;;;15.82;;
73919;SDS011;62266;53.348;-1.496;2022-11-20T01:03:42;33.03;;;15.57;;
73919;SDS011;62266;53.348;-1.496;2022-11-20T01:06:28;34.05;;;15.88;;
73919;SDS011;62266;53.348;-1.496;2022-11-20T01:08:56;35.97;;;17.03;;
73919;SDS011;62266;53.348;-1.496;2022-11-20T01:11:25;36.08;;;15.68;;
73919;SDS011;62266;53.348;-1.496;2022-11-20T01:13:52;39.60;;;16.52;;
73919;SDS011;62266;53.348;-1.496;2022-11-20T01:16:20;38.33;;;16.10;;
73919;SDS011;62266;53.348;-1.496;2022-11-20T01:18:49;37.67;;;16.35;;
73919;SDS011;62266;53.348;-1.496;2022-11-20T01:21:28;34.67;;;16.03;;
73919;SDS011;62266;53.348;-1.496;2022-11-20T01:24:00;34.67;;;15.40;;
73919;SDS011;62266;53.348;-1.496;2022-11-20T01:26:27;36.38;;;16.13;;
73919;SDS011;62266;53.348;-1.496;2022-11-20T01:28:58;34.70;;;16.40;;
73919;SDS011;62266;53.348;-1.496;2022-11-20T01:31:25;35.22;;;16.02;;
73919;SDS011;62266;53.348;-1.496;2022-11-20T01:34:02;36.60;;;17.70;;
73919;SDS011;62266;53.348;-1.496;2022-11-20T01:36:31;36.97;;;16.02;;
73919;SDS011;62266;53.348;-1.496;2022-11-20T01:38:58;32.53;;;15.90;;
73919;SDS011;62266;53.348;-1.496;2022-11-20T01:41:32;33.67;;;14.88;;
73919;SDS011;62266;53.348;-1.496;2022-11-20T01:44:17;33.40;;;15.20;;
73919;SDS011;62266;53.348;-1.496;2022-11-20T01:46:52;33.20;;;15.67;;
73919;SDS011;62266;53.348;-1.496;2022-11-20T01:49:26;32.47;;;14.77;;
73919;SDS011;62266;53.348;-1.496;2022-11-20T01:52:22;31.17;;;14.77;;
73919;SDS011;62266;53.348;-1.496;2022-11-20T01:54:53;32.25;;;14.55;;
73919;SDS011;62266;53.348;-1.496;2022-11-20T01:57:23;28.75;;;14.02;;
73919;SDS011;62266;53.348;-1.496;2022-11-20T01:59:53;30.30;;;14.63;;
73919;SDS011;62266;53.348;-1.496;2022-11-20T02:02:33;31.00;;;14.55;;
73919;SDS011;62266;53.348;-1.496;2022-11-20T02:05:04;33.30;;;15.63;;
73919;SDS011;62266;53.348;-1.496;2022-11-20T02:07:35;27.63;;;13.88;;
73919;SDS011;62266;53.348;-1.496;2022-11-20T02:10:01;33.15;;;14.40;;
73919;SDS011;62266;53.348;-1.496;2022-11-20T02:12:27;32.73;;;13.70;;
73919;SDS011;62266;53.348;-1.496;2022-11-20T02:15:11;30.17;;;14.85;;
73919;SDS011;62266;53.348;-1.496;2022-11-20T02:17:36;30.50;;;13.80;;
73919;SDS011;62266;53.348;-1.496;2022-11-20T02:20:04;30.90;;;14.07;;
73919;SDS011;62266;53.348;-1.496;2022-11-20T02:22:31;27.33;;;12.65;;
73919;SDS011;62266;53.348;-1.496;2022-11-20T02:25:01;31.27;;;14.25;;
73919;SDS011;62266;53.348;-1.496;2022-11-20T02:27:28;30.50;;;14.68;;
73919;SDS011;62266;53.348;-1.496;2022-11-20T02:30:01;28.85;;;14.15;;
73919;SDS011;62266;53.348;-1.496;2022-11-20T02:32:33;33.73;;;13.87;;
73919;SDS011;62266;53.348;-1.496;2022-11-20T02:35:08;29.40;;;13.85;;
73919;SDS011;62266;53.348;-1.496;2022-11-20T02:37:43;27.73;;;12.60;;
73919;SDS011;62266;53.348;-1.496;2022-11-20T02:40:08;29.73;;;12.47;;
73919;SDS011;62266;53.348;-1.496;2022-11-20T02:42:35;27.38;;;12.15;;
73919;SDS011;62266;53.348;-1.496;2022-11-20T02:45:01;27.77;;;12.98;;
73919;SDS011;62266;53.348;-1.496;2022-11-20T02:47:27;28.33;;;11.47;;
73919;SDS011;62266;53.348;-1.496;2022-11-20T02:49:52;32.08;;;12.65;;
73919;SDS011;62266;53.348;-1.496;2022-11-20T02:52:17;25.13;;;10.77;;
73919;SDS011;62266;53.348;-1.496;2022-11-20T02:54:43;25.13;;;11.33;;
73919;SDS011;62266;53.348;-1.496;2022-11-20T02:57:08;26.17;;;11.43;;
73919;SDS011;62266;53.348;-1.496;2022-11-20T02:59:34;24.45;;;11.40;;
73919;SDS011;62266;53.348;-1.496;2022-11-20T03:02:00;22.30;;;10.40;;
73919;SDS011;62266;53.348;-1.496;2022-11-20T03:04:26;24.70;;;10.98;;
73919;SDS011;62266;53.348;-1.496;2022-11-20T03:06:51;26.17;;;11.87;;
73919;SDS011;62266;53.348;-1.496;2022-11-20T03:09:17;26.63;;;11.25;;
73919;SDS011;62266;53.348;-1.496;2022-11-20T03:11:42;20.13;;;10.10;;
73919;SDS011;62266;53.348;-1.496;2022-11-20T03:14:08;23.33;;;10.40;;
73919;SDS011;62266;53.348;-1.496;2022-11-20T03:16:34;21.70;;;9.95;;
73919;SDS011;62266;53.348;-1.496;2022-11-20T03:18:59;20.63;;;9.50;;
73919;SDS011;62266;53.348;-1.496;2022-11-20T03:21:25;21.63;;;9.68;;
73919;SDS011;62266;53.348;-1.496;2022-11-20T03:23:52;20.53;;;10.47;;
73919;SDS011;62266;53.348;-1.496;2022-11-20T03:26:20;19.57;;;9.17;;
73919;SDS011;62266;53.348;-1.496;2022-11-20T03:29:07;21.80;;;9.85;;
73919;SDS011;62266;53.348;-1.496;2022-11-20T03:31:33;24.33;;;9.30;;
73919;SDS011;62266;53.348;-1.496;2022-11-20T03:34:03;17.45;;;7.82;;
73919;SDS011;62266;53.348;-1.496;2022-11-20T03:36:30;23.13;;;9.00;;
73919;SDS011;62266;53.348;-1.496;2022-11-20T03:38:56;18.03;;;7.57;;
73919;SDS011;62266;53.348;-1.496;2022-11-20T03:41:23;20.90;;;8.75;;
73919;SDS011;62266;53.348;-1.496;2022-11-20T03:46:19;27.08;;;8.70;;
73919;SDS011;62266;53.348;-1.496;2022-11-20T03:48:44;17.10;;;7.87;;
73919;SDS011;62266;53.348;-1.496;2022-11-20T03:51:14;18.80;;;7.57;;
73919;SDS011;62266;53.348;-1.496;2022-11-20T03:53:41;17.55;;;7.88;;
73919;SDS011;62266;53.348;-1.496;2022-11-20T03:56:08;13.60;;;7.70;;
73919;SDS011;62266;53.348;-1.496;2022-11-20T03:58:35;19.75;;;7.95;;
73919;SDS011;62266;53.348;-1.496;2022-11-20T04:01:09;21.55;;;8.23;;
73919;SDS011;62266;53.348;-1.496;2022-11-20T04:03:39;16.48;;;6.90;;
73919;SDS011;62266;53.348;-1.496;2022-11-20T04:06:10;17.55;;;7.70;;
73919;SDS011;62266;53.348;-1.496;2022-11-20T04:08:43;13.63;;;7.33;;
73919;SDS011;62266;53.348;-1.496;2022-11-20T04:11:19;13.70;;;5.65;;
73919;SDS011;62266;53.348;-1.496;2022-11-20T04:13:54;13.10;;;5.93;;
73919;SDS011;62266;53.348;-1.496;2022-11-20T04:16:24;13.13;;;6.03;;
73919;SDS011;62266;53.348;-1.496;2022-11-20T04:18:51;12.33;;;5.60;;
73919;SDS011;62266;53.348;-1.496;2022-11-20T04:21:20;11.57;;;6.53;;
73919;SDS011;62266;53.348;-1.496;2022-11-20T04:23:46;11.18;;;6.07;;
73919;SDS011;62266;53.348;-1.496;2022-11-20T04:26:12;10.10;;;6.20;;
73919;SDS011;62266;53.348;-1.496;2022-11-20T04:28:38;15.60;;;6.90;;
73919;SDS011;62266;53.348;-1.496;2022-11-20T04:31:05;12.88;;;6.38;;
73919;SDS011;62266;53.348;-1.496;2022-11-20T04:33:33;14.43;;;6.68;;
73919;SDS011;62266;53.348;-1.496;2022-11-20T04:36:03;16.27;;;6.43;;
73919;SDS011;62266;53.348;-1.496;2022-11-20T04:38:35;12.15;;;6.30;;
73919;SDS011;62266;53.348;-1.496;2022-11-20T04:41:01;10.87;;;5.60;;
73919;SDS011;62266;53.348;-1.496;2022-11-20T04:43:28;13.88;;;6.55;;
73919;SDS011;62266;53.348;-1.496;2022-11-20T04:45:55;10.05;;;5.40;;
73919;SDS011;62266;53.348;-1.496;2022-11-20T04:48:21;9.45;;;5.65;;
73919;SDS011;62266;53.348;-1.496;2022-11-20T04:50:47;10.68;;;5.20;;
73919;SDS011;62266;53.348;-1.496;2022-11-20T04:53:13;10.63;;;4.97;;
73919;SDS011;62266;53.348;-1.496;2022-11-20T04:55:38;9.05;;;4.65;;
73919;SDS011;62266;53.348;-1.496;2022-11-20T04:58:04;10.47;;;5.33;;
73919;SDS011;62266;53.348;-1.496;2022-11-20T05:00:29;9.10;;;4.80;;
73919;SDS011;62266;53.348;-1.496;2022-11-20T05:02:55;7.20;;;4.40;;
73919;SDS011;62266;53.348;-1.496;2022-11-20T05:05:20;5.60;;;3.90;;
73919;SDS011;62266;53.348;-1.496;2022-11-20T05:07:46;11.80;;;5.33;;
73919;SDS011;62266;53.348;-1.496;2022-11-20T05:10:12;8.00;;;4.13;;
73919;SDS011;62266;53.348;-1.496;2022-11-20T05:12:37;7.37;;;4.40;;
73919;SDS011;62266;53.348;-1.496;2022-11-20T05:15:03;6.30;;;4.10;;
73919;SDS011;62266;53.348;-1.496;2022-11-20T05:17:28;7.67;;;4.20;;
73919;SDS011;62266;53.348;-1.496;2022-11-20T05:19:54;8.48;;;4.30;;
73919;SDS011;62266;53.348;-1.496;2022-11-20T05:22:20;8.07;;;3.97;;
73919;SDS011;62266;53.348;-1.496;2022-11-20T05:24:45;5.35;;;3.83;;
73919;SDS011;62266;53.348;-1.496;2022-11-20T05:27:11;6.00;;;3.90;;
73919;SDS011;62266;53.348;-1.496;2022-11-20T05:29:36;5.63;;;3.60;;
73919;SDS011;62266;53.348;-1.496;2022-11-20T05:32:02;5.60;;;3.20;;
73919;SDS011;62266;53.348;-1.496;2022-11-20T05:34:28;7.20;;;4.03;;
73919;SDS011;62266;53.348;-1.496;2022-11-20T05:36:53;4.90;;;3.27;;
73919;SDS011;62266;53.348;-1.496;2022-11-20T05:39:19;4.53;;;3.37;;
73919;SDS011;62266;53.348;-1.496;2022-11-20T05:41:44;4.10;;;2.87;;
73919;SDS011;62266;53.348;-1.496;2022-11-20T05:44:11;4.80;;;3.40;;
73919;SDS011;62266;53.348;-1.496;2022-11-20T05:46:40;3.80;;;2.72;;
73919;SDS011;62266;53.348;-1.496;2022-11-20T05:49:06;3.60;;;2.60;;
73919;SDS011;62266;53.348;-1.496;2022-11-20T05:51:31;3.17;;;1.47;;
73919;SDS011;62266;53.348;-1.496;2022-11-20T05:53:57;2.25;;;1.40;;
73919;SDS011;62266;53.348;-1.496;2022-11-20T05:56:23;1.85;;;1.17;;
73919;SDS011;62266;53.348;-1.496;2022-11-20T05:58:49;1.70;;;1.00;;
73919;SDS011;62266;53.348;-1.496;2022-11-20T06:03:43;1.50;;;0.95;;
73919;SDS011;62266;53.348;-1.496;2022-11-20T06:06:12;1.30;;;0.90;;
73919;SDS011;62266;53.348;-1.496;2022-11-20T06:08:39;2.35;;;1.00;;
73919;SDS011;62266;53.348;-1.496;2022-11-20T06:11:08;1.20;;;0.87;;
73919;SDS011;62266;53.348;-1.496;2022-11-20T06:13:36;0.73;;;0.63;;
73919;SDS011;62266;53.348;-1.496;2022-11-20T06:16:01;1.57;;;0.90;;
73919;SDS011;62266;53.348;-1.496;2022-11-20T06:18:27;1.45;;;0.80;;
73919;SDS011;62266;53.348;-1.496;2022-11-20T06:21:04;1.00;;;0.90;;
73919;SDS011;62266;53.348;-1.496;2022-11-20T06:23:31;1.50;;;0.93;;
73919;SDS011;62266;53.348;-1.496;2022-11-20T06:26:00;1.63;;;1.10;;
73919;SDS011;62266;53.348;-1.496;2022-11-20T06:28:30;1.10;;;0.77;;
73919;SDS011;62266;53.348;-1.496;2022-11-20T06:30:56;1.55;;;1.00;;
73919;SDS011;62266;53.348;-1.496;2022-11-20T06:33:22;1.10;;;0.80;;
73919;SDS011;62266;53.348;-1.496;2022-11-20T06:35:48;0.80;;;0.80;;
73919;SDS011;62266;53.348;-1.496;2022-11-20T06:38:13;2.97;;;1.40;;
73919;SDS011;62266;53.348;-1.496;2022-11-20T06:40:42;1.77;;;1.38;;
73919;SDS011;62266;53.348;-1.496;2022-11-20T06:43:09;1.40;;;1.25;;
73919;SDS011;62266;53.348;-1.496;2022-11-20T06:45:35;1.57;;;1.30;;
73919;SDS011;62266;53.348;-1.496;2022-11-20T06:48:01;1.83;;;1.30;;
73919;SDS011;62266;53.348;-1.496;2022-11-20T06:50:27;2.67;;;1.10;;
73919;SDS011;62266;53.348;-1.496;2022-11-20T06:52:53;3.03;;;1.50;;
73919;SDS011;62266;53.348;-1.496;2022-11-20T06:55:18;1.65;;;1.30;;
73919;SDS011;62266;53.348;-1.496;2022-11-20T06:57:44;2.80;;;1.20;;
73919;SDS011;62266;53.348;-1.496;2022-11-20T07:00:10;2.50;;;1.17;;
73919;SDS011;62266;53.348;-1.496;2022-11-20T07:02:36;1.85;;;1.35;;
73919;SDS011;62266;53.348;-1.496;2022-11-20T07:05:02;3.08;;;1.48;;
73919;SDS011;62266;53.348;-1.496;2022-11-20T07:07:28;3.10;;;2.00;;
73919;SDS011;62266;53.348;-1.496;2022-11-20T07:09:53;2.77;;;1.60;;
73919;SDS011;62266;53.348;-1.496;2022-11-20T07:12:19;3.90;;;2.03;;
73919;SDS011;62266;53.348;-1.496;2022-11-20T07:14:44;3.30;;;1.90;;
73919;SDS011;62266;53.348;-1.496;2022-11-20T07:17:09;2.47;;;1.80;;
73919;SDS011;62266;53.348;-1.496;2022-11-20T07:19:35;3.10;;;2.00;;
73919;SDS011;62266;53.348;-1.496;2022-11-20T07:22:01;5.00;;;2.75;;
73919;SDS011;62266;53.348;-1.496;2022-11-20T07:24:27;3.97;;;2.45;;
73919;SDS011;62266;53.348;-1.496;2022-11-20T07:26:52;5.30;;;2.60;;
73919;SDS011;62266;53.348;-1.496;2022-11-20T07:29:18;8.10;;;2.50;;
73919;SDS011;62266;53.348;-1.496;2022-11-20T07:31:43;4.50;;;2.20;;
73919;SDS011;62266;53.348;-1.496;2022-11-20T07:34:09;4.03;;;2.17;;
73919;SDS011;62266;53.348;-1.496;2022-11-20T07:36:34;4.47;;;2.60;;
73919;SDS011;62266;53.348;-1.496;2022-11-20T07:39:00;6.07;;;2.40;;
73919;SDS011;62266;53.348;-1.496;2022-11-20T07:41:27;5.57;;;2.80;;
73919;SDS011;62266;53.348;-1.496;2022-11-20T07:43:54;4.18;;;2.58;;
73919;SDS011;62266;53.348;-1.496;2022-11-20T07:46:19;4.57;;;2.90;;
73919;SDS011;62266;53.348;-1.496;2022-11-20T07:48:45;5.63;;;2.77;;
73919;SDS011;62266;53.348;-1.496;2022-11-20T07:51:10;7.37;;;2.80;;
73919;SDS011;62266;53.348;-1.496;2022-11-20T07:53:36;4.97;;;2.50;;
73919;SDS011;62266;53.348;-1.496;2022-11-20T07:56:02;5.03;;;3.67;;
73919;SDS011;62266;53.348;-1.496;2022-11-20T07:58:28;4.23;;;3.20;;
73919;SDS011;62266;53.348;-1.496;2022-11-20T08:00:55;8.13;;;3.20;;
73919;SDS011;62266;53.348;-1.496;2022-11-20T08:03:21;6.75;;;4.22;;
73919;SDS011;62266;53.348;-1.496;2022-11-20T08:05:46;8.10;;;4.40;;
73919;SDS011;62266;53.348;-1.496;2022-11-20T08:08:12;8.73;;;4.75;;
73919;SDS011;62266;53.348;-1.496;2022-11-20T08:10:37;11.40;;;5.63;;
73919;SDS011;62266;53.348;-1.496;2022-11-20T08:13:03;23.57;;;10.10;;
73919;SDS011;62266;53.348;-1.496;2022-11-20T08:15:58;16.80;;;7.88;;
73919;SDS011;62266;53.348;-1.496;2022-11-20T08:18:33;12.73;;;6.28;;
73919;SDS011;62266;53.348;-1.496;2022-11-20T08:21:04;15.20;;;7.93;;
73919;SDS011;62266;53.348;-1.496;2022-11-20T08:23:30;20.27;;;8.88;;
73919;SDS011;62266;53.348;-1.496;2022-11-20T08:25:56;14.45;;;7.55;;
73919;SDS011;62266;53.348;-1.496;2022-11-20T08:28:23;19.90;;;8.73;;
73919;SDS011;62266;53.348;-1.496;2022-11-20T08:30:49;14.90;;;7.88;;
73919;SDS011;62266;53.348;-1.496;2022-11-20T08:33:15;13.75;;;6.82;;
73919;SDS011;62266;53.348;-1.496;2022-11-20T08:35:47;13.02;;;5.68;;
73919;SDS011;62266;53.348;-1.496;2022-11-20T08:38:15;13.30;;;5.80;;
73919;SDS011;62266;53.348;-1.496;2022-11-20T08:40:40;12.02;;;5.38;;
73919;SDS011;62266;53.348;-1.496;2022-11-20T08:43:06;18.13;;;6.50;;
73919;SDS011;62266;53.348;-1.496;2022-11-20T08:45:32;14.07;;;6.03;;
73919;SDS011;62266;53.348;-1.496;2022-11-20T08:48:01;13.40;;;6.40;;
73919;SDS011;62266;53.348;-1.496;2022-11-20T08:50:27;15.52;;;6.03;;
73919;SDS011;62266;53.348;-1.496;2022-11-20T08:52:53;14.47;;;6.63;;
73919;SDS011;62266;53.348;-1.496;2022-11-20T08:55:18;17.07;;;7.00;;
73919;SDS011;62266;53.348;-1.496;2022-11-20T08:57:44;10.37;;;5.33;;
73919;SDS011;62266;53.348;-1.496;2022-11-20T09:00:10;14.68;;;5.90;;
73919;SDS011;62266;53.348;-1.496;2022-11-20T09:02:36;16.27;;;6.47;;
73919;SDS011;62266;53.348;-1.496;2022-11-20T09:05:01;12.77;;;6.32;;
73919;SDS011;62266;53.348;-1.496;2022-11-20T09:07:27;14.63;;;5.97;;
73919;SDS011;62266;53.348;-1.496;2022-11-20T09:09:54;20.23;;;6.60;;
73919;SDS011;62266;53.348;-1.496;2022-11-20T09:12:20;16.50;;;4.90;;
73919;SDS011;62266;53.348;-1.496;2022-11-20T09:14:46;10.82;;;4.00;;
73919;SDS011;62266;53.348;-1.496;2022-11-20T09:17:11;12.43;;;4.70;;
73919;SDS011;62266;53.348;-1.496;2022-11-20T09:19:38;19.45;;;5.88;;
73919;SDS011;62266;53.348;-1.496;2022-11-20T09:22:04;11.70;;;3.93;;
73919;SDS011;62266;53.348;-1.496;2022-11-20T09:24:29;15.63;;;4.60;;
73919;SDS011;62266;53.348;-1.496;2022-11-20T09:26:55;16.67;;;4.43;;
73919;SDS011;62266;53.348;-1.496;2022-11-20T09:29:20;17.67;;;4.40;;
73919;SDS011;62266;53.348;-1.496;2022-11-20T09:31:46;11.00;;;4.32;;
73919;SDS011;62266;53.348;-1.496;2022-11-20T09:34:11;13.60;;;4.93;;
73919;SDS011;62266;53.348;-1.496;2022-11-20T09:36:37;16.23;;;5.57;;
73919;SDS011;62266;53.348;-1.496;2022-11-20T09:39:03;13.87;;;4.90;;
73919;SDS011;62266;53.348;-1.496;2022-11-20T09:46:56;17.17;;;5.93;;
73919;SDS011;62266;53.348;-1.496;2022-11-20T09:49:33;18.42;;;5.35;;
73919;SDS011;62266;53.348;-1.496;2022-11-20T09:52:17;14.48;;;4.65;;
73919;SDS011;62266;53.348;-1.496;2022-11-20T09:54:47;19.83;;;6.97;;
73919;SDS011;62266;53.348;-1.496;2022-11-20T09:57:21;27.27;;;9.88;;
73919;SDS011;62266;53.348;-1.496;2022-11-20T09:59:50;20.13;;;7.00;;
73919;SDS011;62266;53.348;-1.496;2022-11-20T10:05:39;20.20;;;6.85;;
73919;SDS011;62266;53.348;-1.496;2022-11-20T10:10:46;13.10;;;4.63;;
73919;SDS011;62266;53.348;-1.496;2022-11-20T10:13:26;12.23;;;3.53;;
73919;SDS011;62266;53.348;-1.496;2022-11-20T10:16:09;58.05;;;22.77;;
73919;SDS011;62266;53.348;-1.496;2022-11-20T10:29:55;19.50;;;8.25;;
73919;SDS011;62266;53.348;-1.496;2022-11-20T10:32:28;10.10;;;2.38;;
73919;SDS011;62266;53.348;-1.496;2022-11-20T10:38:09;13.38;;;3.38;;
73919;SDS011;62266;53.348;-1.496;2022-11-20T10:41:05;15.35;;;2.40;;
73919;SDS011;62266;53.348;-1.496;2022-11-20T10:43:52;15.02;;;3.17;;
73919;SDS011;62266;53.348;-1.496;2022-11-20T10:46:44;15.63;;;4.28;;
73919;SDS011;62266;53.348;-1.496;2022-11-20T10:49:13;13.90;;;4.37;;
73919;SDS011;62266;53.348;-1.496;2022-11-20T10:51:45;13.77;;;2.83;;
73919;SDS011;62266;53.348;-1.496;2022-11-20T10:54:26;15.25;;;2.80;;
73919;SDS011;62266;53.348;-1.496;2022-11-20T10:57:07;14.45;;;3.58;;
73919;SDS011;62266;53.348;-1.496;2022-11-20T11:02:31;11.97;;;2.57;;
73919;SDS011;62266;53.348;-1.496;2022-11-20T11:05:37;13.43;;;2.78;;
73919;SDS011;62266;53.348;-1.496;2022-11-20T11:08:05;9.85;;;2.47;;
73919;SDS011;62266;53.348;-1.496;2022-11-20T11:10:37;6.95;;;2.63;;
73919;SDS011;62266;53.348;-1.496;2022-11-20T11:13:07;10.48;;;2.42;;
73919;SDS011;62266;53.348;-1.496;2022-11-20T11:15:37;10.87;;;3.07;;
73919;SDS011;62266;53.348;-1.496;2022-11-20T11:18:07;10.07;;;3.08;;
73919;SDS011;62266;53.348;-1.496;2022-11-20T11:20:34;9.60;;;2.47;;
73919;SDS011;62266;53.348;-1.496;2022-11-20T11:23:00;13.60;;;2.60;;
73919;SDS011;62266;53.348;-1.496;2022-11-20T11:25:26;12.15;;;2.47;;
73919;SDS011;62266;53.348;-1.496;2022-11-20T11:27:53;8.23;;;2.70;;
73919;SDS011;62266;53.348;-1.496;2022-11-20T11:30:21;9.17;;;2.70;;
73919;SDS011;62266;53.348;-1.496;2022-11-20T11:32:47;16.42;;;2.53;;
73919;SDS011;62266;53.348;-1.496;2022-11-20T11:35:21;11.35;;;2.28;;
73919;SDS011;62266;53.348;-1.496;2022-11-20T11:37:48;9.63;;;2.25;;
73919;SDS011;62266;53.348;-1.496;2022-11-20T11:40:15;12.68;;;2.35;;
73919;SDS011;62266;53.348;-1.496;2022-11-20T11:42:42;9.80;;;2.37;;
73919;SDS011;62266;53.348;-1.496;2022-11-20T11:45:14;8.73;;;2.60;;
73919;SDS011;62266;53.348;-1.496;2022-11-20T11:52:38;10.82;;;3.28;;
73919;SDS011;62266;53.348;-1.496;2022-11-20T11:55:09;19.48;;;4.80;;
73919;SDS011;62266;53.348;-1.496;2022-11-20T11:57:47;48.50;;;22.40;;
73919;SDS011;62266;53.348;-1.496;2022-11-20T12:00:17;42.63;;;21.47;;
73919;SDS011;62266;53.348;-1.496;2022-11-20T12:05:17;10.43;;;4.00;;
73919;SDS011;62266;53.348;-1.496;2022-11-20T12:13:10;8.75;;;2.47;;
73919;SDS011;62266;53.348;-1.496;2022-11-20T12:15:40;9.05;;;2.00;;
73919;SDS011;62266;53.348;-1.496;2022-11-20T12:18:09;8.40;;;1.47;;
73919;SDS011;62266;53.348;-1.496;2022-11-20T12:20:41;9.40;;;1.55;;
73919;SDS011;62266;53.348;-1.496;2022-11-20T12:23:26;9.20;;;1.98;;
73919;SDS011;62266;53.348;-1.496;2022-11-20T12:25:56;11.25;;;4.20;;
73919;SDS011;62266;53.348;-1.496;2022-11-20T12:28:34;10.18;;;1.73;;
73919;SDS011;62266;53.348;-1.496;2022-11-20T12:31:58;12.23;;;2.00;;
73919;SDS011;62266;53.348;-1.496;2022-11-20T12:36:58;11.77;;;1.80;;
73919;SDS011;62266;53.348;-1.496;2022-11-20T12:39:49;6.50;;;1.05;;
73919;SDS011;62266;53.348;-1.496;2022-11-20T12:45:10;7.40;;;1.83;;
73919;SDS011;62266;53.348;-1.496;2022-11-20T12:47:59;11.73;;;3.33;;
73919;SDS011;62266;53.348;-1.496;2022-11-20T12:51:14;15.30;;;3.28;;
73919;SDS011;62266;53.348;-1.496;2022-11-20T13:05:17;10.38;;;2.13;;
73919;SDS011;62266;53.348;-1.496;2022-11-20T13:07:44;13.68;;;2.78;;
73919;SDS011;62266;53.348;-1.496;2022-11-20T13:13:42;8.90;;;2.57;;
73919;SDS011;62266;53.348;-1.496;2022-11-20T13:15:46;11.68;;;2.55;;
73919;SDS011;62266;53.348;-1.496;2022-11-20T13:18:13;11.70;;;3.08;;
73919;SDS011;62266;53.348;-1.496;2022-11-20T13:20:45;9.40;;;2.00;;
73919;SDS011;62266;53.348;-1.496;2022-11-20T13:23:22;12.48;;;1.92;;
73919;SDS011;62266;53.348;-1.496;2022-11-20T13:26:04;9.30;;;2.93;;
73919;SDS011;62266;53.348;-1.496;2022-11-20T13:28:31;8.23;;;1.88;;
73919;SDS011;62266;53.348;-1.496;2022-11-20T13:30:57;12.80;;;2.00;;
73919;SDS011;62266;53.348;-1.496;2022-11-20T13:33:25;6.63;;;1.60;;
73919;SDS011;62266;53.348;-1.496;2022-11-20T13:35:55;11.17;;;3.50;;
73919;SDS011;62266;53.348;-1.496;2022-11-20T13:38:23;19.67;;;3.20;;
73919;SDS011;62266;53.348;-1.496;2022-11-20T13:45:55;9.70;;;2.00;;
73919;SDS011;62266;53.348;-1.496;2022-11-20T13:48:23;10.60;;;1.80;;
73919;SDS011;62266;53.348;-1.496;2022-11-20T13:59:05;12.88;;;1.92;;
73919;SDS011;62266;53.348;-1.496;2022-11-20T14:01:52;9.73;;;2.22;;
73919;SDS011;62266;53.348;-1.496;2022-11-20T14:04:20;10.27;;;2.30;;
73919;SDS011;62266;53.348;-1.496;2022-11-20T14:06:52;11.73;;;2.00;;
73919;SDS011;62266;53.348;-1.496;2022-11-20T14:09:25;12.10;;;2.60;;
73919;SDS011;62266;53.348;-1.496;2022-11-20T14:11:52;11.88;;;2.22;;
73919;SDS011;62266;53.348;-1.496;2022-11-20T14:14:27;15.17;;;3.67;;
73919;SDS011;62266;53.348;-1.496;2022-11-20T14:19:51;15.70;;;3.03;;
73919;SDS011;62266;53.348;-1.496;2022-11-20T14:22:21;11.15;;;2.22;;
73919;SDS011;62266;53.348;-1.496;2022-11-20T14:24:49;9.00;;;2.97;;
73919;SDS011;62266;53.348;-1.496;2022-11-20T14:27:27;11.67;;;2.90;;
73919;SDS011;62266;53.348;-1.496;2022-11-20T14:29:53;15.50;;;2.63;;
73919;SDS011;62266;53.348;-1.496;2022-11-20T14:32:21;10.98;;;2.83;;
73919;SDS011;62266;53.348;-1.496;2022-11-20T14:34:49;12.70;;;2.05;;
73919;SDS011;62266;53.348;-1.496;2022-11-20T14:37:22;12.50;;;3.37;;
73919;SDS011;62266;53.348;-1.496;2022-11-20T14:39:53;14.80;;;2.42;;
73919;SDS011;62266;53.348;-1.496;2022-11-20T14:42:23;9.27;;;2.45;;
73919;SDS011;62266;53.348;-1.496;2022-11-20T14:44:52;8.25;;;2.38;;
73919;SDS011;62266;53.348;-1.496;2022-11-20T14:47:21;8.67;;;1.90;;
73919;SDS011;62266;53.348;-1.496;2022-11-20T14:49:50;11.80;;;2.17;;
73919;SDS011;62266;53.348;-1.496;2022-11-20T14:52:17;11.63;;;2.30;;
73919;SDS011;62266;53.348;-1.496;2022-11-20T14:54:45;13.10;;;3.83;;
73919;SDS011;62266;53.348;-1.496;2022-11-20T14:57:25;16.55;;;5.18;;
73919;SDS011;62266;53.348;-1.496;2022-11-20T15:00:03;10.90;;;3.20;;
73919;SDS011;62266;53.348;-1.496;2022-11-20T15:02:43;13.68;;;3.60;;
73919;SDS011;62266;53.348;-1.496;2022-11-20T15:05:10;8.18;;;3.10;;
73919;SDS011;62266;53.348;-1.496;2022-11-20T15:07:40;17.83;;;7.78;;
73919;SDS011;62266;53.348;-1.496;2022-11-20T15:10:26;21.08;;;6.55;;
73919;SDS011;62266;53.348;-1.496;2022-11-20T15:12:53;20.47;;;5.13;;
73919;SDS011;62266;53.348;-1.496;2022-11-20T15:18:21;13.35;;;3.20;;
73919;SDS011;62266;53.348;-1.496;2022-11-20T15:20:49;12.20;;;3.17;;
73919;SDS011;62266;53.348;-1.496;2022-11-20T15:23:16;9.52;;;2.45;;
73919;SDS011;62266;53.348;-1.496;2022-11-20T15:25:46;9.13;;;2.63;;
73919;SDS011;62266;53.348;-1.496;2022-11-20T15:28:16;11.95;;;3.90;;
73919;SDS011;62266;53.348;-1.496;2022-11-20T15:31:01;15.52;;;3.17;;
73919;SDS011;62266;53.348;-1.496;2022-11-20T15:33:28;15.10;;;5.13;;
73919;SDS011;62266;53.348;-1.496;2022-11-20T15:35:54;13.32;;;4.75;;
73919;SDS011;62266;53.348;-1.496;2022-11-20T15:38:20;15.63;;;6.27;;
73919;SDS011;62266;53.348;-1.496;2022-11-20T15:40:45;9.77;;;2.70;;
73919;SDS011;62266;53.348;-1.496;2022-11-20T15:43:11;14.90;;;4.57;;
73919;SDS011;62266;53.348;-1.496;2022-11-20T15:45:46;9.30;;;2.05;;
73919;SDS011;62266;53.348;-1.496;2022-11-20T15:53:47;5.20;;;1.33;;
73919;SDS011;62266;53.348;-1.496;2022-11-20T15:56:14;4.97;;;1.65;;
73919;SDS011;62266;53.348;-1.496;2022-11-20T15:58:39;6.32;;;1.60;;
73919;SDS011;62266;53.348;-1.496;2022-11-20T16:01:05;6.50;;;1.40;;
73919;SDS011;62266;53.348;-1.496;2022-11-20T16:03:31;4.32;;;1.40;;
73919;SDS011;62266;53.348;-1.496;2022-11-20T16:05:57;5.20;;;1.00;;
73919;SDS011;62266;53.348;-1.496;2022-11-20T16:08:23;3.05;;;1.27;;